Current Weather

Nairobi Jkia

Nairobi Jkia, Kenya (HKJK)

Report from: Wednesday, September 28, 2022 12:00 PM EAT
Current time: Wednesday, September 28, 2022 12:31 PM EAT

Nearby weather
Weather history
Weather forecast

Temperature24.0°C (75.2°F)
Dew point9.0°C (48.2°F)
Winds 6 kts (3.1 m/s, 6.9 mph) Southeast (130°)
Visibility6.2 mi. (10 km)
Clouds Few clouds 2,700 ft. (823 m)
Altimeter30.21 in.Hg (1023 mB)
Relative humidity39 %
Density altitude883 ft. (269 m)
Remarks No significant changes expected in the next two hours
Flight conditions Visual Meteorological Conditions
Raw dataHKJK 280900Z 13006KT 9999 FEW027 24/09 Q1023 NOSIG
An error has occurred. This application may no longer respond until reloaded. Reload 🗙